Gem, Kansas
Current Conditions -  °F | °C
As of 11:35 AM on Monday 24 Nov 2014 (Local Time) from KCBK Reporting Station
Broken Clouds Broken Clouds  
Wind Chill: 39°   Ceiling: 8000
Heat Index: 46°   Visibility: 10mi
Dew Point: 23°   Wind: 18mph
Humidity: 40%   Direction: 320°NW
Pressure: 29.91"   Gusts: 26mph
Location:  39.43°N, 100.9°W
Report Text: KCBK 241735Z AUTO 32016G23KT 10SM SCT070 BKN080 08/M05 A2991 RMK AO2
Loading
Personal Weather Stations






























Interactive Weather Map New forecast layout! Learn more

10-Day Weather Forecast

Advertisements
Track Severe Weather on mobile